createdAt,value
2023-04-07T00:02:12.508Z,8.40
2023-04-07T00:04:40.613Z,10.20
2023-04-07T00:07:08.635Z,6.50
2023-04-07T00:09:37.334Z,6.00
2023-04-07T00:12:05.168Z,5.80
2023-04-07T00:14:33.036Z,5.10
2023-04-07T00:17:00.828Z,5.20
2023-04-07T00:19:28.630Z,4.90
2023-04-07T00:21:56.353Z,5.60
2023-04-07T00:24:33.788Z,4.80
2023-04-07T00:27:02.562Z,5.10
2023-04-07T00:29:30.324Z,6.10
2023-04-07T00:31:58.133Z,5.60
2023-04-07T00:34:26.045Z,6.80
2023-04-07T00:36:53.957Z,4.90
2023-04-07T00:39:21.817Z,5.70
2023-04-07T00:41:49.606Z,5.10
2023-04-07T00:44:17.584Z,5.00
2023-04-07T00:46:47.598Z,6.60
2023-04-07T00:49:17.901Z,5.20
2023-04-07T00:51:46.207Z,5.40
2023-04-07T00:54:14.063Z,5.60
2023-04-07T00:56:43.602Z,5.20
2023-04-07T00:59:11.594Z,4.90
2023-04-07T01:01:58.165Z,4.30
2023-04-07T01:04:26.202Z,5.90
2023-04-07T01:06:57.165Z,4.90
2023-04-07T01:09:35.043Z,4.80
2023-04-07T01:12:18.583Z,4.60
2023-04-07T01:14:50.675Z,4.80
2023-04-07T01:17:19.480Z,5.20
2023-04-07T01:19:48.970Z,4.20
2023-04-07T01:22:18.220Z,4.40
2023-04-07T01:24:52.189Z,4.80
2023-04-07T01:27:38.627Z,5.90
2023-04-07T01:30:10.196Z,5.40
2023-04-07T01:32:39.718Z,4.90
2023-04-07T01:35:10.902Z,4.80
2023-04-07T01:37:38.995Z,5.80
2023-04-07T01:40:07.933Z,4.90
2023-04-07T01:42:36.822Z,5.90
2023-04-07T01:45:06.039Z,6.40
2023-04-07T01:47:34.655Z,6.00
2023-04-07T01:50:05.398Z,6.90
2023-04-07T01:52:33.738Z,7.00
2023-04-07T01:55:01.765Z,6.60
2023-04-07T01:57:29.641Z,6.50
2023-04-07T01:59:57.848Z,7.50
2023-04-07T02:02:25.891Z,6.70
2023-04-07T02:05:05.860Z,6.00
2023-04-07T02:07:43.038Z,5.80
2023-04-07T02:10:12.182Z,5.80
2023-04-07T02:12:41.401Z,6.30
2023-04-07T02:15:09.515Z,5.60
2023-04-07T02:17:39.521Z,5.80
2023-04-07T02:20:08.590Z,5.90
2023-04-07T02:22:37.250Z,6.00
2023-04-07T02:25:24.370Z,5.00
2023-04-07T02:27:52.723Z,5.80
2023-04-07T02:30:23.872Z,5.50
2023-04-07T02:32:52.292Z,5.40
2023-04-07T02:35:20.681Z,6.70
2023-04-07T02:37:48.622Z,5.70
2023-04-07T02:40:16.729Z,5.50
2023-04-07T02:42:44.707Z,5.80
2023-04-07T02:45:12.628Z,5.70
2023-04-07T02:47:40.903Z,6.10
2023-04-07T02:50:08.807Z,5.30
2023-04-07T02:52:36.610Z,6.10
2023-04-07T02:55:04.555Z,5.60
2023-04-07T02:57:32.397Z,5.40
2023-04-07T03:00:00.593Z,5.30
2023-04-07T03:02:28.622Z,5.20
2023-04-07T03:04:57.022Z,4.90
2023-04-07T03:07:24.828Z,5.50
2023-04-07T03:09:52.652Z,5.80
2023-04-07T03:12:20.861Z,5.50
2023-04-07T03:14:48.684Z,5.50
2023-04-07T03:17:16.488Z,5.10
2023-04-07T03:19:44.234Z,5.20
2023-04-07T03:22:12.404Z,5.60
2023-04-07T03:24:41.251Z,5.40
2023-04-07T03:27:08.969Z,5.60
2023-04-07T03:29:36.853Z,6.80
2023-04-07T03:32:04.628Z,5.90
2023-04-07T03:34:32.448Z,5.90
2023-04-07T03:37:00.496Z,6.10
2023-04-07T03:39:28.328Z,6.10
2023-04-07T03:41:56.367Z,5.70
2023-04-07T03:44:24.173Z,5.40
2023-04-07T03:46:53.789Z,5.50
2023-04-07T03:49:22.207Z,5.40
2023-04-07T03:51:49.981Z,5.80
2023-04-07T03:54:17.734Z,5.50
2023-04-07T03:56:45.758Z,6.10
2023-04-07T03:59:13.592Z,6.20
2023-04-07T04:01:41.491Z,6.20
2023-04-07T04:04:09.430Z,5.80
2023-04-07T04:06:37.260Z,6.40
2023-04-07T04:09:05.085Z,6.00
2023-04-07T04:11:32.998Z,6.10
2023-04-07T04:14:00.885Z,7.30
2023-04-07T04:16:28.784Z,7.70
2023-04-07T04:18:56.578Z,6.90
2023-04-07T04:21:24.496Z,6.50
2023-04-07T04:23:52.374Z,6.40
2023-04-07T04:26:21.177Z,7.10
2023-04-07T04:28:48.915Z,7.00
2023-04-07T04:31:16.716Z,6.60
2023-04-07T04:33:44.552Z,6.90
2023-04-07T04:36:12.353Z,7.10
2023-04-07T04:38:40.534Z,7.10
2023-04-07T04:41:08.456Z,7.60
2023-04-07T04:43:36.493Z,7.10
2023-04-07T04:46:04.297Z,9.00
2023-04-07T04:48:32.136Z,9.60
2023-04-07T04:50:59.878Z,10.90
2023-04-07T04:53:27.723Z,15.10
2023-04-07T04:55:56.129Z,12.30
2023-04-07T04:58:23.861Z,10.20
2023-04-07T05:00:58.026Z,9.20
2023-04-07T05:03:27.184Z,8.40
2023-04-07T05:05:55.263Z,8.70
2023-04-07T05:08:23.167Z,8.50
2023-04-07T05:10:50.973Z,27.50
2023-04-07T05:13:18.763Z,20.10
2023-04-07T05:15:46.666Z,16.10
2023-04-07T05:18:14.526Z,18.30
2023-04-07T05:20:42.277Z,17.70
2023-04-07T05:23:10.148Z,9.00
2023-04-07T05:25:37.939Z,8.40
2023-04-07T05:28:06.545Z,7.90
2023-04-07T05:30:34.468Z,7.60
2023-04-07T05:33:02.337Z,7.80
2023-04-07T05:35:30.294Z,7.80
2023-04-07T05:37:58.013Z,8.20
2023-04-07T05:40:25.856Z,7.20
2023-04-07T05:42:53.602Z,8.30
2023-04-07T05:45:21.472Z,9.50
2023-04-07T05:47:50.748Z,8.00
2023-04-07T05:50:18.553Z,8.30
2023-04-07T05:52:46.491Z,7.50
2023-04-07T05:55:14.372Z,7.10
2023-04-07T05:57:42.149Z,7.10
2023-04-07T06:00:10.913Z,7.80
2023-04-07T06:02:40.290Z,8.00
2023-04-07T06:05:08.376Z,7.10
2023-04-07T06:07:36.076Z,7.90
2023-04-07T06:10:03.925Z,8.30
2023-04-07T06:12:31.730Z,8.20
2023-04-07T06:14:59.492Z,7.30
2023-04-07T06:17:27.340Z,7.70
2023-04-07T06:19:55.216Z,8.30
2023-04-07T06:22:24.643Z,7.70
2023-04-07T06:24:52.981Z,8.30
2023-04-07T06:27:21.557Z,9.20
2023-04-07T06:29:49.346Z,11.40
2023-04-07T06:32:17.143Z,9.30
2023-04-07T06:34:44.927Z,9.50
2023-04-07T06:37:12.716Z,10.10
2023-04-07T06:39:41.267Z,9.70
2023-04-07T06:42:09.049Z,10.90
2023-04-07T06:44:36.804Z,8.80
2023-04-07T06:47:04.745Z,9.30
2023-04-07T06:49:32.516Z,8.10
2023-04-07T06:52:00.353Z,7.50
2023-04-07T06:54:28.166Z,7.60
2023-04-07T06:56:57.375Z,7.20
2023-04-07T06:59:25.305Z,7.70
2023-04-07T07:01:53.081Z,7.20
2023-04-07T07:04:21.135Z,7.30
2023-04-07T07:06:48.977Z,7.50
2023-04-07T07:09:16.789Z,7.30
2023-04-07T07:11:44.715Z,6.20
2023-04-07T07:14:12.397Z,7.70
2023-04-07T07:16:41.254Z,7.20
2023-04-07T07:19:09.672Z,6.70
2023-04-07T07:21:37.440Z,7.70
2023-04-07T07:24:05.315Z,7.80
2023-04-07T07:26:33.135Z,6.80
2023-04-07T07:29:00.967Z,7.50
2023-04-07T07:31:28.791Z,7.30
2023-04-07T07:33:56.631Z,7.20
2023-04-07T07:36:24.440Z,7.50
2023-04-07T07:38:52.620Z,6.40
2023-04-07T07:41:21.172Z,6.70
2023-04-07T07:43:49.329Z,6.60
2023-04-07T07:46:17.452Z,7.70
2023-04-07T07:48:46.620Z,7.50
2023-04-07T07:51:14.485Z,6.30
2023-04-07T07:53:42.230Z,6.30
2023-04-07T07:56:10.072Z,6.20
2023-04-07T07:58:37.830Z,6.50
2023-04-07T08:01:05.795Z,6.60
2023-04-07T08:03:33.767Z,8.00
2023-04-07T08:06:01.890Z,7.40
2023-04-07T08:08:29.681Z,6.40
2023-04-07T08:10:57.454Z,7.10
2023-04-07T08:13:25.280Z,6.80
2023-04-07T08:15:53.152Z,5.90
2023-04-07T08:18:21.099Z,7.20
2023-04-07T08:20:48.837Z,7.50
2023-04-07T08:23:16.761Z,7.40
2023-04-07T08:25:44.646Z,7.40
2023-04-07T08:28:12.677Z,7.10
2023-04-07T08:30:40.442Z,6.90
2023-04-07T08:33:08.285Z,8.00
2023-04-07T08:35:36.325Z,8.70
2023-04-07T08:38:04.893Z,9.20
2023-04-07T08:40:32.924Z,8.90
2023-04-07T08:43:01.536Z,8.80
2023-04-07T08:45:30.254Z,9.20
2023-04-07T08:47:59.608Z,8.90
2023-04-07T08:50:28.324Z,7.90
2023-04-07T08:52:57.733Z,8.00
2023-04-07T08:55:26.562Z,8.80
2023-04-07T08:57:54.473Z,7.90
2023-04-07T09:00:23.209Z,9.20
2023-04-07T09:02:51.934Z,11.20
2023-04-07T09:05:21.493Z,11.60
2023-04-07T09:07:49.368Z,10.60
2023-04-07T09:10:17.836Z,9.10
2023-04-07T09:12:45.650Z,10.50
2023-04-07T09:15:13.566Z,9.10
2023-04-07T09:17:41.441Z,9.40
2023-04-07T09:20:09.441Z,9.40
2023-04-07T09:22:42.516Z,8.60
2023-04-07T09:25:17.353Z,8.10
2023-04-07T09:27:56.798Z,8.70
2023-04-07T09:30:25.088Z,9.20
2023-04-07T09:32:52.955Z,8.70
2023-04-07T09:35:23.225Z,7.60
2023-04-07T09:38:08.017Z,8.30
2023-04-07T09:40:36.845Z,9.50
2023-04-07T09:43:05.518Z,9.10
2023-04-07T09:45:36.706Z,9.20
2023-04-07T09:48:06.101Z,8.10
2023-04-07T09:50:35.332Z,8.80
2023-04-07T09:53:04.778Z,8.80
2023-04-07T09:55:33.897Z,9.90
2023-04-07T09:58:02.004Z,8.80
2023-04-07T10:00:29.809Z,8.60
2023-04-07T10:02:58.230Z,9.00
2023-04-07T10:05:26.457Z,9.60
2023-04-07T10:07:54.746Z,10.20
2023-04-07T10:10:22.569Z,9.40
2023-04-07T10:12:53.218Z,9.40
2023-04-07T10:15:21.285Z,22.90
2023-04-07T10:17:49.400Z,9.40
2023-04-07T10:20:18.806Z,21.70
2023-04-07T10:22:48.474Z,11.50
2023-04-07T10:25:18.314Z,13.60
2023-04-07T10:27:51.316Z,28.70
2023-04-07T10:30:29.870Z,26.90
2023-04-07T10:32:58.067Z,9.60
2023-04-07T10:35:26.281Z,8.10
2023-04-07T10:38:13.804Z,10.30
2023-04-07T10:40:43.082Z,7.80
2023-04-07T10:43:15.096Z,7.10
2023-04-07T10:45:45.858Z,7.20
2023-04-07T10:48:14.378Z,7.20
2023-04-07T10:50:42.695Z,7.00
2023-04-07T10:53:14.468Z,8.90
2023-04-07T10:55:43.816Z,7.40
2023-04-07T10:58:14.401Z,8.20
2023-04-07T11:00:42.446Z,7.40
2023-04-07T11:03:13.246Z,7.00
2023-04-07T11:05:41.810Z,7.70
2023-04-07T11:08:09.607Z,7.30
2023-04-07T11:10:37.459Z,8.00
2023-04-07T11:13:08.614Z,7.10
2023-04-07T11:15:40.404Z,7.70
2023-04-07T11:18:11.921Z,8.00
2023-04-07T11:20:44.943Z,7.70
2023-04-07T11:23:16.787Z,8.30
2023-04-07T11:25:45.875Z,7.90
2023-04-07T11:28:14.693Z,10.50
2023-04-07T11:30:50.127Z,11.30
2023-04-07T11:33:22.350Z,13.00
2023-04-07T11:35:56.043Z,10.40
2023-04-07T11:38:25.774Z,11.60
2023-04-07T11:40:54.511Z,10.70
2023-04-07T11:43:24.167Z,12.90
2023-04-07T11:46:24.135Z,10.40
2023-04-07T11:48:52.011Z,9.10
2023-04-07T11:51:21.154Z,9.30
2023-04-07T11:53:54.331Z,8.10
2023-04-07T11:56:22.438Z,8.10
2023-04-07T11:58:54.031Z,7.80
2023-04-07T12:01:25.004Z,9.20
2023-04-07T12:03:57.326Z,9.20
2023-04-07T12:06:34.962Z,8.80
2023-04-07T12:09:03.168Z,8.60
2023-04-07T12:11:31.940Z,8.00
2023-04-07T12:14:00.005Z,7.70
2023-04-07T12:16:27.891Z,8.20
2023-04-07T12:18:55.796Z,7.90
2023-04-07T12:21:25.712Z,8.00
2023-04-07T12:23:53.520Z,8.00
2023-04-07T12:26:23.421Z,7.80
2023-04-07T12:28:51.388Z,8.30
2023-04-07T12:31:19.645Z,7.80
2023-04-07T12:33:47.843Z,6.80
2023-04-07T12:36:16.236Z,8.10
2023-04-07T12:38:44.089Z,8.00
2023-04-07T12:41:12.245Z,8.90
2023-04-07T12:43:40.013Z,8.10
2023-04-07T12:46:07.985Z,7.70
2023-04-07T12:48:36.015Z,7.70
2023-04-07T12:51:07.084Z,8.20
2023-04-07T12:53:35.144Z,8.30
2023-04-07T12:56:03.012Z,8.70
2023-04-07T12:58:30.922Z,9.50
2023-04-07T13:00:58.870Z,7.90
2023-04-07T13:03:29.371Z,7.50
2023-04-07T13:06:01.384Z,9.20
2023-04-07T13:08:29.392Z,11.50
2023-04-07T13:10:57.398Z,8.80
2023-04-07T13:13:25.455Z,6.10
2023-04-07T13:15:53.609Z,6.80
2023-04-07T13:18:21.881Z,6.20
2023-04-07T13:21:03.034Z,8.40
2023-04-07T13:23:43.716Z,8.20
2023-04-07T13:26:11.963Z,10.10
2023-04-07T13:28:39.921Z,8.40
2023-04-07T13:31:07.957Z,9.10
2023-04-07T13:33:36.097Z,10.50
2023-04-07T13:36:04.160Z,8.70
2023-04-07T13:38:31.988Z,8.60
2023-04-07T13:40:59.774Z,7.40
2023-04-07T13:43:27.811Z,9.50
2023-04-07T13:45:56.813Z,8.20
2023-04-07T13:48:24.845Z,8.30
2023-04-07T13:50:52.635Z,8.20
2023-04-07T13:53:21.721Z,8.80
2023-04-07T13:55:49.586Z,7.60
2023-04-07T13:58:17.494Z,9.70
2023-04-07T14:00:45.440Z,7.60
2023-04-07T14:03:13.295Z,6.70
2023-04-07T14:05:41.324Z,8.20
2023-04-07T14:08:11.382Z,9.20
2023-04-07T14:10:39.793Z,9.40
2023-04-07T14:13:07.715Z,8.30
2023-04-07T14:15:35.652Z,8.20
2023-04-07T14:18:03.620Z,7.70
2023-04-07T14:20:31.552Z,8.40
2023-04-07T14:22:59.368Z,8.80
2023-04-07T14:25:27.205Z,9.10
2023-04-07T14:27:55.051Z,9.50
2023-04-07T14:30:22.943Z,9.90
2023-04-07T14:32:51.046Z,10.30
2023-04-07T14:35:18.970Z,11.50
2023-04-07T14:37:46.804Z,10.20
2023-04-07T14:40:14.465Z,9.60
2023-04-07T14:42:42.247Z,10.00
2023-04-07T14:45:10.206Z,9.60
2023-04-07T14:47:37.977Z,10.20
2023-04-07T14:50:06.170Z,12.00
2023-04-07T14:52:34.049Z,10.00
2023-04-07T14:55:05.482Z,9.70
2023-04-07T14:57:36.885Z,10.10
2023-04-07T15:00:07.523Z,12.10
2023-04-07T15:02:36.565Z,11.50
2023-04-07T15:05:04.998Z,12.10
2023-04-07T15:07:32.826Z,10.90
2023-04-07T15:10:00.895Z,13.20
2023-04-07T15:12:31.467Z,14.70
2023-04-07T15:14:59.340Z,15.80
2023-04-07T15:17:40.038Z,13.80
2023-04-07T15:20:13.080Z,13.50
2023-04-07T15:22:41.246Z,15.50
2023-04-07T15:25:09.090Z,14.20
2023-04-07T15:27:36.929Z,14.20
2023-04-07T15:30:04.941Z,13.60
2023-04-07T15:32:32.877Z,14.30
2023-04-07T15:35:00.892Z,16.00
2023-04-07T15:37:28.746Z,15.10
2023-04-07T15:39:59.653Z,14.40
2023-04-07T15:42:27.475Z,15.90
2023-04-07T15:44:55.433Z,14.80
2023-04-07T15:47:23.321Z,16.30
2023-04-07T15:49:51.177Z,18.10
2023-04-07T15:52:18.908Z,16.00
2023-04-07T15:54:46.844Z,16.90
2023-04-07T15:57:16.819Z,16.30
2023-04-07T15:59:44.654Z,17.90
2023-04-07T16:02:14.182Z,17.10
2023-04-07T16:04:42.602Z,16.80
2023-04-07T16:07:10.449Z,18.60
2023-04-07T16:09:38.598Z,18.50
2023-04-07T16:12:06.807Z,19.30
2023-04-07T16:14:34.680Z,18.10
2023-04-07T16:17:02.861Z,18.30
2023-04-07T16:19:30.969Z,17.90
2023-04-07T16:21:58.745Z,20.50
2023-04-07T16:24:26.611Z,19.60
2023-04-07T16:26:55.944Z,19.00
2023-04-07T16:29:24.041Z,19.20
2023-04-07T16:31:51.846Z,18.50
2023-04-07T16:34:21.986Z,19.80
2023-04-07T16:36:50.468Z,21.20
2023-04-07T16:39:18.446Z,20.60
2023-04-07T16:41:46.297Z,20.80
2023-04-07T16:44:14.020Z,21.70
2023-04-07T16:46:41.727Z,19.60
2023-04-07T16:49:10.806Z,18.20
2023-04-07T16:51:38.621Z,19.50
2023-04-07T16:54:06.424Z,19.40
2023-04-07T16:56:34.282Z,19.60
2023-04-07T16:59:03.890Z,18.30
2023-04-07T17:01:31.940Z,18.30
2023-04-07T17:03:59.924Z,17.80
2023-04-07T17:06:28.088Z,18.90
2023-04-07T17:08:56.218Z,18.00
2023-04-07T17:11:24.080Z,19.80
2023-04-07T17:13:56.411Z,19.50
2023-04-07T17:16:25.649Z,18.10
2023-04-07T17:18:53.496Z,19.60
2023-04-07T17:21:21.317Z,19.10
2023-04-07T17:23:49.242Z,19.90
2023-04-07T17:26:17.224Z,21.00
2023-04-07T17:28:45.932Z,19.60
2023-04-07T17:31:14.157Z,21.30
2023-04-07T17:33:42.210Z,20.30
2023-04-07T17:36:09.976Z,23.40
2023-04-07T17:38:37.815Z,25.50
2023-04-07T17:41:06.562Z,22.70
2023-04-07T17:43:34.366Z,24.50
2023-04-07T17:46:03.765Z,23.70
2023-04-07T17:48:32.268Z,22.70
2023-04-07T17:51:00.772Z,21.50
2023-04-07T17:53:28.788Z,23.50
2023-04-07T17:55:56.678Z,23.60
2023-04-07T17:58:24.897Z,24.60
2023-04-07T18:00:52.925Z,23.80
2023-04-07T18:03:21.217Z,25.20
2023-04-07T18:05:49.472Z,22.20
2023-04-07T18:08:17.299Z,22.90
2023-04-07T18:10:45.086Z,25.10
2023-04-07T18:13:12.896Z,24.30
2023-04-07T18:15:40.713Z,22.50
2023-04-07T18:18:08.621Z,20.80
2023-04-07T18:20:36.843Z,22.80
2023-04-07T18:23:05.113Z,23.10
2023-04-07T18:25:32.937Z,23.30
2023-04-07T18:28:02.546Z,21.80
2023-04-07T18:30:30.436Z,22.90
2023-04-07T18:32:58.428Z,25.60
2023-04-07T18:35:26.387Z,22.60
2023-04-07T18:37:54.646Z,24.60
2023-04-07T18:40:22.693Z,25.20
2023-04-07T18:42:50.555Z,22.70
2023-04-07T18:45:18.511Z,22.30
2023-04-07T18:47:46.500Z,22.80
2023-04-07T18:50:14.511Z,23.90
2023-04-07T18:52:42.416Z,26.10
2023-04-07T18:55:11.148Z,25.50
2023-04-07T18:57:39.602Z,30.10
2023-04-07T19:00:08.559Z,30.40
2023-04-07T19:02:38.721Z,27.50
2023-04-07T19:05:06.928Z,46.10
2023-04-07T19:07:34.723Z,39.00
2023-04-07T19:10:05.781Z,37.70
2023-04-07T19:12:33.692Z,50.60
2023-04-07T19:15:01.421Z,66.20
2023-04-07T19:17:30.414Z,73.10
2023-04-07T19:19:58.276Z,59.00
2023-04-07T19:22:27.473Z,26.60
2023-04-07T19:24:55.909Z,23.70
2023-04-07T19:27:23.934Z,21.80
2023-04-07T19:29:52.122Z,21.50
2023-04-07T19:32:19.839Z,22.70
2023-04-07T19:34:47.598Z,24.70
2023-04-07T19:37:16.319Z,26.20
2023-04-07T19:39:55.630Z,25.40
2023-04-07T19:42:29.940Z,26.90
2023-04-07T19:45:00.527Z,26.60
2023-04-07T19:47:28.952Z,27.00
2023-04-07T19:49:57.272Z,27.20
2023-04-07T19:52:25.136Z,28.20
2023-04-07T19:54:53.113Z,29.70
2023-04-07T19:57:21.002Z,33.80
2023-04-07T19:59:48.769Z,36.00
2023-04-07T20:02:16.672Z,34.70
2023-04-07T20:04:44.829Z,37.00
2023-04-07T20:07:12.701Z,34.10
2023-04-07T20:09:40.470Z,34.50
2023-04-07T20:12:08.296Z,37.90
2023-04-07T20:14:36.092Z,34.90
2023-04-07T20:17:03.935Z,33.10
2023-04-07T20:19:31.761Z,33.70
2023-04-07T20:21:59.478Z,35.30
2023-04-07T20:24:27.282Z,37.20
2023-04-07T20:26:56.095Z,34.80
2023-04-07T20:29:23.900Z,33.40
2023-04-07T20:31:51.978Z,37.00
2023-04-07T20:34:19.756Z,35.00
2023-04-07T20:36:48.929Z,34.40
2023-04-07T20:39:16.684Z,33.20
2023-04-07T20:41:45.603Z,31.80
2023-04-07T20:44:13.373Z,34.30
2023-04-07T20:46:42.056Z,35.50
2023-04-07T20:49:10.899Z,36.90
2023-04-07T20:51:38.771Z,34.30
2023-04-07T20:54:06.524Z,35.50
2023-04-07T20:56:34.700Z,33.00
2023-04-07T20:59:02.432Z,34.80
2023-04-07T21:01:30.543Z,35.20
2023-04-07T21:04:00.846Z,33.50
2023-04-07T21:06:28.676Z,35.90
2023-04-07T21:08:56.482Z,37.20
2023-04-07T21:11:24.256Z,34.90
2023-04-07T21:13:51.994Z,36.60
2023-04-07T21:16:19.681Z,34.40
2023-04-07T21:18:47.784Z,34.40
2023-04-07T21:21:16.065Z,36.70
2023-04-07T21:23:43.787Z,36.00
2023-04-07T21:26:11.584Z,37.10
2023-04-07T21:28:40.443Z,34.80
2023-04-07T21:31:09.101Z,36.10
2023-04-07T21:33:38.369Z,39.00
2023-04-07T21:36:06.588Z,38.40
2023-04-07T21:38:34.469Z,39.10
2023-04-07T21:41:02.320Z,37.30
2023-04-07T21:43:30.074Z,36.00
2023-04-07T21:45:57.910Z,35.00
2023-04-07T21:48:25.809Z,34.40
2023-04-07T21:50:53.657Z,32.30
2023-04-07T21:53:21.638Z,34.50
2023-04-07T21:55:49.412Z,37.00
2023-04-07T21:58:17.231Z,37.20
2023-04-07T22:00:47.785Z,34.00
2023-04-07T22:03:16.798Z,35.10
2023-04-07T22:05:45.403Z,34.70
2023-04-07T22:08:13.182Z,32.60
2023-04-07T22:10:40.891Z,34.20
2023-04-07T22:13:09.277Z,31.80
2023-04-07T22:15:37.030Z,32.60
2023-04-07T22:18:05.025Z,32.90
2023-04-07T22:20:32.970Z,32.80
2023-04-07T22:23:00.814Z,34.10
2023-04-07T22:25:28.670Z,34.40
2023-04-07T22:27:56.994Z,33.40
2023-04-07T22:30:25.621Z,35.40
2023-04-07T22:32:53.528Z,37.30
2023-04-07T22:35:21.607Z,34.70
2023-04-07T22:37:49.415Z,34.60
2023-04-07T22:40:17.429Z,30.90
2023-04-07T22:42:45.361Z,31.30
2023-04-07T22:45:13.175Z,30.40
2023-04-07T22:47:41.004Z,27.80
2023-04-07T22:50:09.154Z,25.40
2023-04-07T22:52:36.987Z,23.00
2023-04-07T22:55:05.170Z,19.90
2023-04-07T22:57:32.999Z,22.80
2023-04-07T23:00:00.730Z,21.90
2023-04-07T23:02:28.652Z,21.20
2023-04-07T23:04:57.288Z,20.00
2023-04-07T23:07:25.070Z,18.20
2023-04-07T23:09:52.806Z,17.50
2023-04-07T23:12:20.781Z,17.10
2023-04-07T23:14:48.502Z,15.50
2023-04-07T23:17:16.330Z,15.60
2023-04-07T23:19:44.067Z,14.10
2023-04-07T23:22:12.554Z,15.50
2023-04-07T23:24:40.450Z,13.70
2023-04-07T23:27:10.521Z,14.00
2023-04-07T23:29:38.222Z,13.10
2023-04-07T23:32:06.806Z,13.50
2023-04-07T23:34:34.664Z,13.70
2023-04-07T23:37:02.508Z,13.80
2023-04-07T23:39:30.523Z,14.40
2023-04-07T23:41:58.378Z,12.90
2023-04-07T23:44:26.510Z,13.70
2023-04-07T23:46:54.580Z,17.50
2023-04-07T23:49:22.420Z,15.50
2023-04-07T23:51:50.773Z,16.90
2023-04-07T23:54:18.444Z,12.40
2023-04-07T23:56:46.711Z,12.10
2023-04-07T23:59:14.444Z,13.30
